Linden, North Carolina
Current Conditions -  °F | °C
As of 10:55 AM on Friday 28 Nov 2014 (Local Time) from KHRJ Reporting Station
Clear Clear  
Wind Chill: 37°   Ceiling: Unl
Heat Index: 41°   Visibility: 10mi
Dew Point: 21°   Wind: 7mph
Humidity: 44%   Direction: 330°NNW
Pressure: 30.38"   Gusts: NA
Location:  35.25°N, 78.75°W
Report Text: KHRJ 281555Z AUTO 33006KT 10SM CLR 05/M06 A3038 RMK AO2 T00521062
Loading
Personal Weather Stations






























Interactive Weather Map New forecast layout! Learn more

10-Day Weather Forecast

Advertisements
Track Severe Weather on mobile